This is the latest recevied weather packets stored in our database for station/object KD8DLP-13. If no packets are shown the sender has not sent any weather packets the latest 10 day(s).
| Time | Temp. | Humidity | Pressure | Rain* | Wind** | Luminosity | Snow |
|---|---|---|---|---|---|---|---|
| 1777307518 | 18.89° C | 61% | 1013.5 hPa | 0 mm | - | 344 W/m² | - |
| 1777307215 | 18.89° C | 61% | 1013.7 hPa | 0 mm | - | 344 W/m² | - |
| 1777306913 | 19.44° C | 61% | 1013.8 hPa | 0 mm | - | 450 W/m² | - |
| 1777306610 | 18.89° C | 62% | 1013.8 hPa | 0 mm | - | 459 W/m² | - |
| 1777306305 | 18.33° C | 62% | 1013.7 hPa | 0 mm | - | 394 W/m² | - |
| 1777306000 | 18.89° C | 63% | 1014.2 hPa | 0 mm | - | 449 W/m² | - |
| 1777305698 | 18.33° C | 64% | 1014.2 hPa | 0 mm | - | 388 W/m² | - |
| 1777305393 | 17.78° C | 64% | 1014 hPa | 0 mm | - | 385 W/m² | - |
| 1777305088 | 17.78° C | 64% | 1014.2 hPa | 0 mm | - | 360 W/m² | - |
| 1777304783 | 17.78° C | 65% | 1014.5 hPa | 0 mm | - | 320 W/m² | - |
| 1777304480 | 17.78° C | 65% | 1014.4 hPa | 0 mm | - | 315 W/m² | - |
| 1777304178 | 17.78° C | 66% | 1014.2 hPa | 0 mm | - | 311 W/m² | - |
| 1777303874 | 17.22° C | 66% | 1014.5 hPa | 0 mm | - | 280 W/m² | - |
| 1777303571 | 17.22° C | 66% | 1014.3 hPa | 0 mm | - | 252 W/m² | - |
| 1777303269 | 17.22° C | 68% | 1014.5 hPa | 0 mm | - | 258 W/m² | - |
| 1777302967 | 17.22° C | 67% | 1014.6 hPa | 0 mm | - | 236 W/m² | - |
| 1777302663 | 17.22° C | 68% | 1014.6 hPa | 0 mm | - | 225 W/m² | - |
| 1777302362 | 16.67° C | 68% | 1015 hPa | 0 mm | - | 203 W/m² | - |
| 1777302059 | 16.67° C | 68% | 1014.9 hPa | 0 mm | - | 197 W/m² | - |
| 1777301757 | 16.67° C | 69% | 1015 hPa | 0 mm | - | 191 W/m² | - |
| 1777301453 | 16.67° C | 68% | 1014.8 hPa | 0 mm | - | 200 W/m² | - |
| 1777301150 | 16.67° C | 69% | 1014.5 hPa | 0 mm | - | 221 W/m² | - |
| 1777300847 | 16.67° C | 69% | 1014.2 hPa | 0 mm | - | 278 W/m² | - |
| 1777300546 | 16.11° C | 70% | 1014.3 hPa | 0 mm | - | 327 W/m² | - |
| 1777300243 | 16.11° C | 70% | 1014.5 hPa | 0 mm | - | 384 W/m² | - |
* Rain latest hour (hover to see other rain measurements)
** Current wind speed in m/s (hover to see current wind gust speed)